sensor_id;sensor_type;location;lat;lon;timestamp;P1;durP1;ratioP1;P2;durP2;ratioP2
29452;SDS011;16424;50.956;5.320;2022-12-15T00:00:45;64.93;;;28.95;;
29452;SDS011;16424;50.956;5.320;2022-12-15T00:03:29;82.70;;;28.70;;
29452;SDS011;16424;50.956;5.320;2022-12-15T00:06:13;91.78;;;30.17;;
29452;SDS011;16424;50.956;5.320;2022-12-15T00:08:58;78.07;;;32.38;;
29452;SDS011;16424;50.956;5.320;2022-12-15T00:11:42;72.13;;;30.05;;
29452;SDS011;16424;50.956;5.320;2022-12-15T00:14:26;62.22;;;29.33;;
29452;SDS011;16424;50.956;5.320;2022-12-15T00:17:10;60.75;;;28.58;;
29452;SDS011;16424;50.956;5.320;2022-12-15T00:19:54;69.80;;;30.60;;
29452;SDS011;16424;50.956;5.320;2022-12-15T00:22:37;64.70;;;30.45;;
29452;SDS011;16424;50.956;5.320;2022-12-15T00:25:22;57.33;;;26.88;;
29452;SDS011;16424;50.956;5.320;2022-12-15T00:28:06;52.38;;;23.60;;
29452;SDS011;16424;50.956;5.320;2022-12-15T00:30:50;45.38;;;24.25;;
29452;SDS011;16424;50.956;5.320;2022-12-15T00:33:34;51.30;;;26.50;;
29452;SDS011;16424;50.956;5.320;2022-12-15T00:36:18;68.05;;;30.15;;
29452;SDS011;16424;50.956;5.320;2022-12-15T00:39:02;67.30;;;29.38;;
29452;SDS011;16424;50.956;5.320;2022-12-15T00:41:28;65.72;;;28.75;;
29452;SDS011;16424;50.956;5.320;2022-12-15T00:43:53;62.40;;;30.05;;
29452;SDS011;16424;50.956;5.320;2022-12-15T00:46:19;70.13;;;31.30;;
29452;SDS011;16424;50.956;5.320;2022-12-15T00:49:03;47.30;;;23.13;;
29452;SDS011;16424;50.956;5.320;2022-12-15T00:51:49;70.85;;;30.30;;
29452;SDS011;16424;50.956;5.320;2022-12-15T00:54:33;58.60;;;28.67;;
29452;SDS011;16424;50.956;5.320;2022-12-15T00:57:17;72.40;;;30.58;;
29452;SDS011;16424;50.956;5.320;2022-12-15T01:00:02;63.55;;;29.98;;
29452;SDS011;16424;50.956;5.320;2022-12-15T01:02:48;69.13;;;31.17;;
29452;SDS011;16424;50.956;5.320;2022-12-15T01:05:32;47.80;;;22.40;;
29452;SDS011;16424;50.956;5.320;2022-12-15T01:08:16;69.82;;;31.48;;
29452;SDS011;16424;50.956;5.320;2022-12-15T01:11:01;67.72;;;29.00;;
29452;SDS011;16424;50.956;5.320;2022-12-15T01:13:45;58.92;;;23.73;;
29452;SDS011;16424;50.956;5.320;2022-12-15T01:16:29;62.53;;;29.85;;
29452;SDS011;16424;50.956;5.320;2022-12-15T01:19:13;46.38;;;21.90;;
29452;SDS011;16424;50.956;5.320;2022-12-15T01:21:57;51.50;;;23.27;;
29452;SDS011;16424;50.956;5.320;2022-12-15T01:24:23;70.93;;;30.00;;
29452;SDS011;16424;50.956;5.320;2022-12-15T01:26:48;64.38;;;30.50;;
29452;SDS011;16424;50.956;5.320;2022-12-15T01:29:14;76.70;;;30.77;;
29452;SDS011;16424;50.956;5.320;2022-12-15T01:31:40;67.50;;;30.67;;
29452;SDS011;16424;50.956;5.320;2022-12-15T01:34:07;72.82;;;31.20;;
29452;SDS011;16424;50.956;5.320;2022-12-15T01:36:33;60.95;;;30.40;;
29452;SDS011;16424;50.956;5.320;2022-12-15T01:38:59;73.50;;;30.85;;
29452;SDS011;16424;50.956;5.320;2022-12-15T01:41:25;75.35;;;33.00;;
29452;SDS011;16424;50.956;5.320;2022-12-15T01:43:51;68.82;;;32.22;;
29452;SDS011;16424;50.956;5.320;2022-12-15T01:46:20;69.35;;;32.35;;
29452;SDS011;16424;50.956;5.320;2022-12-15T01:48:48;79.50;;;33.83;;
29452;SDS011;16424;50.956;5.320;2022-12-15T01:51:22;71.55;;;33.58;;
29452;SDS011;16424;50.956;5.320;2022-12-15T01:56:45;69.93;;;31.75;;
29452;SDS011;16424;50.956;5.320;2022-12-15T01:59:18;82.60;;;35.50;;
29452;SDS011;16424;50.956;5.320;2022-12-15T02:01:51;75.72;;;33.20;;
29452;SDS011;16424;50.956;5.320;2022-12-15T02:04:17;76.22;;;33.67;;
29452;SDS011;16424;50.956;5.320;2022-12-15T02:06:45;85.68;;;34.35;;
29452;SDS011;16424;50.956;5.320;2022-12-15T02:09:11;82.63;;;35.25;;
29452;SDS011;16424;50.956;5.320;2022-12-15T02:11:56;75.65;;;32.80;;
29452;SDS011;16424;50.956;5.320;2022-12-15T02:17:21;71.40;;;32.65;;
29452;SDS011;16424;50.956;5.320;2022-12-15T02:20:08;79.53;;;33.85;;
29452;SDS011;16424;50.956;5.320;2022-12-15T02:32:08;82.18;;;30.23;;
29452;SDS011;16424;50.956;5.320;2022-12-15T02:36:58;85.95;;;35.67;;
29452;SDS011;16424;50.956;5.320;2022-12-15T02:39:46;86.55;;;35.65;;
29452;SDS011;16424;50.956;5.320;2022-12-15T02:42:12;72.97;;;31.73;;
29452;SDS011;16424;50.956;5.320;2022-12-15T02:44:39;71.13;;;31.92;;
29452;SDS011;16424;50.956;5.320;2022-12-15T02:53:05;66.22;;;31.23;;
29452;SDS011;16424;50.956;5.320;2022-12-15T02:55:59;67.30;;;30.02;;
29452;SDS011;16424;50.956;5.320;2022-12-15T02:58:31;72.38;;;31.10;;
29452;SDS011;16424;50.956;5.320;2022-12-15T03:01:07;80.57;;;30.55;;
29452;SDS011;16424;50.956;5.320;2022-12-15T03:03:44;77.93;;;32.47;;
29452;SDS011;16424;50.956;5.320;2022-12-15T03:06:12;73.38;;;31.00;;
29452;SDS011;16424;50.956;5.320;2022-12-15T03:08:38;59.67;;;28.02;;
29452;SDS011;16424;50.956;5.320;2022-12-15T03:11:04;72.65;;;31.65;;
29452;SDS011;16424;50.956;5.320;2022-12-15T03:13:30;65.90;;;28.38;;
29452;SDS011;16424;50.956;5.320;2022-12-15T03:15:56;72.00;;;30.67;;
29452;SDS011;16424;50.956;5.320;2022-12-15T03:18:22;62.50;;;29.25;;
29452;SDS011;16424;50.956;5.320;2022-12-15T03:20:48;75.40;;;31.80;;
29452;SDS011;16424;50.956;5.320;2022-12-15T03:23:14;76.53;;;29.70;;
29452;SDS011;16424;50.956;5.320;2022-12-15T03:25:39;62.45;;;29.33;;
29452;SDS011;16424;50.956;5.320;2022-12-15T03:28:05;64.80;;;29.08;;
29452;SDS011;16424;50.956;5.320;2022-12-15T03:30:30;64.05;;;28.70;;
29452;SDS011;16424;50.956;5.320;2022-12-15T03:32:59;63.72;;;28.42;;
29452;SDS011;16424;50.956;5.320;2022-12-15T03:35:25;73.40;;;30.48;;
29452;SDS011;16424;50.956;5.320;2022-12-15T03:37:51;65.20;;;28.33;;
29452;SDS011;16424;50.956;5.320;2022-12-15T03:40:16;63.25;;;28.38;;
29452;SDS011;16424;50.956;5.320;2022-12-15T03:42:43;59.80;;;27.13;;
29452;SDS011;16424;50.956;5.320;2022-12-15T03:45:18;62.88;;;28.48;;
29452;SDS011;16424;50.956;5.320;2022-12-15T03:47:46;63.58;;;28.55;;
29452;SDS011;16424;50.956;5.320;2022-12-15T03:50:14;63.75;;;28.67;;
29452;SDS011;16424;50.956;5.320;2022-12-15T03:52:41;61.58;;;27.60;;
29452;SDS011;16424;50.956;5.320;2022-12-15T03:55:07;60.85;;;27.40;;
29452;SDS011;16424;50.956;5.320;2022-12-15T03:57:34;58.45;;;28.50;;
29452;SDS011;16424;50.956;5.320;2022-12-15T04:00:00;67.28;;;29.65;;
29452;SDS011;16424;50.956;5.320;2022-12-15T04:02:25;61.38;;;28.05;;
29452;SDS011;16424;50.956;5.320;2022-12-15T04:04:51;63.67;;;28.98;;
29452;SDS011;16424;50.956;5.320;2022-12-15T04:07:17;67.63;;;28.77;;
29452;SDS011;16424;50.956;5.320;2022-12-15T04:09:42;62.92;;;28.58;;
29452;SDS011;16424;50.956;5.320;2022-12-15T04:12:11;71.25;;;29.70;;
29452;SDS011;16424;50.956;5.320;2022-12-15T04:14:37;62.30;;;27.98;;
29452;SDS011;16424;50.956;5.320;2022-12-15T04:17:09;62.92;;;28.50;;
29452;SDS011;16424;50.956;5.320;2022-12-15T04:19:35;65.75;;;29.83;;
29452;SDS011;16424;50.956;5.320;2022-12-15T04:22:19;64.85;;;28.30;;
29452;SDS011;16424;50.956;5.320;2022-12-15T04:24:45;64.80;;;29.38;;
29452;SDS011;16424;50.956;5.320;2022-12-15T04:27:29;63.45;;;28.10;;
29452;SDS011;16424;50.956;5.320;2022-12-15T04:30:13;45.05;;;21.35;;
29452;SDS011;16424;50.956;5.320;2022-12-15T04:32:58;45.70;;;19.48;;
29452;SDS011;16424;50.956;5.320;2022-12-15T04:35:43;62.17;;;27.52;;
29452;SDS011;16424;50.956;5.320;2022-12-15T04:38:28;67.13;;;28.00;;
29452;SDS011;16424;50.956;5.320;2022-12-15T04:41:12;59.03;;;27.02;;
29452;SDS011;16424;50.956;5.320;2022-12-15T04:43:57;60.17;;;27.98;;
29452;SDS011;16424;50.956;5.320;2022-12-15T04:46:41;56.42;;;25.40;;
29452;SDS011;16424;50.956;5.320;2022-12-15T04:49:25;56.40;;;27.20;;
29452;SDS011;16424;50.956;5.320;2022-12-15T04:52:09;53.20;;;27.10;;
29452;SDS011;16424;50.956;5.320;2022-12-15T04:54:55;62.10;;;27.35;;
29452;SDS011;16424;50.956;5.320;2022-12-15T04:57:39;60.58;;;27.55;;
29452;SDS011;16424;50.956;5.320;2022-12-15T05:00:23;66.22;;;27.42;;
29452;SDS011;16424;50.956;5.320;2022-12-15T05:03:07;66.47;;;27.63;;
29452;SDS011;16424;50.956;5.320;2022-12-15T05:05:51;47.67;;;22.42;;
29452;SDS011;16424;50.956;5.320;2022-12-15T05:11:20;66.80;;;25.33;;
29452;SDS011;16424;50.956;5.320;2022-12-15T05:14:04;58.58;;;27.25;;
29452;SDS011;16424;50.956;5.320;2022-12-15T05:16:49;55.10;;;25.05;;
29452;SDS011;16424;50.956;5.320;2022-12-15T05:19:33;63.78;;;27.30;;
29452;SDS011;16424;50.956;5.320;2022-12-15T05:22:17;50.35;;;24.48;;
29452;SDS011;16424;50.956;5.320;2022-12-15T05:25:02;53.20;;;26.27;;
29452;SDS011;16424;50.956;5.320;2022-12-15T05:30:30;63.03;;;26.10;;
29452;SDS011;16424;50.956;5.320;2022-12-15T05:33:14;59.60;;;26.98;;
29452;SDS011;16424;50.956;5.320;2022-12-15T05:35:40;54.88;;;26.63;;
29452;SDS011;16424;50.956;5.320;2022-12-15T05:38:06;59.28;;;27.67;;
29452;SDS011;16424;50.956;5.320;2022-12-15T05:40:31;63.97;;;27.35;;
29452;SDS011;16424;50.956;5.320;2022-12-15T05:42:57;59.53;;;27.27;;
29452;SDS011;16424;50.956;5.320;2022-12-15T05:45:23;61.35;;;29.75;;
29452;SDS011;16424;50.956;5.320;2022-12-15T05:47:50;65.75;;;29.00;;
29452;SDS011;16424;50.956;5.320;2022-12-15T05:50:16;61.78;;;27.42;;
29452;SDS011;16424;50.956;5.320;2022-12-15T05:52:42;64.75;;;28.42;;
29452;SDS011;16424;50.956;5.320;2022-12-15T05:55:08;65.32;;;28.95;;
29452;SDS011;16424;50.956;5.320;2022-12-15T05:57:34;70.70;;;28.85;;
29452;SDS011;16424;50.956;5.320;2022-12-15T05:59:59;66.03;;;29.55;;
29452;SDS011;16424;50.956;5.320;2022-12-15T06:02:27;60.05;;;28.38;;
29452;SDS011;16424;50.956;5.320;2022-12-15T06:04:53;57.15;;;27.60;;
29452;SDS011;16424;50.956;5.320;2022-12-15T06:07:18;113.50;;;33.53;;
29452;SDS011;16424;50.956;5.320;2022-12-15T06:09:44;60.67;;;28.30;;
29452;SDS011;16424;50.956;5.320;2022-12-15T06:12:10;62.13;;;28.70;;
29452;SDS011;16424;50.956;5.320;2022-12-15T06:14:35;67.53;;;27.73;;
29452;SDS011;16424;50.956;5.320;2022-12-15T06:17:01;66.60;;;28.85;;
29452;SDS011;16424;50.956;5.320;2022-12-15T06:19:27;63.25;;;28.38;;
29452;SDS011;16424;50.956;5.320;2022-12-15T06:21:53;63.28;;;29.77;;
29452;SDS011;16424;50.956;5.320;2022-12-15T06:24:18;66.28;;;30.15;;
29452;SDS011;16424;50.956;5.320;2022-12-15T06:26:44;70.72;;;31.88;;
29452;SDS011;16424;50.956;5.320;2022-12-15T06:29:13;62.58;;;27.00;;
29452;SDS011;16424;50.956;5.320;2022-12-15T06:31:39;61.30;;;28.58;;
29452;SDS011;16424;50.956;5.320;2022-12-15T06:34:07;63.17;;;28.73;;
29452;SDS011;16424;50.956;5.320;2022-12-15T06:36:36;66.55;;;29.23;;
29452;SDS011;16424;50.956;5.320;2022-12-15T06:39:04;64.57;;;28.60;;
29452;SDS011;16424;50.956;5.320;2022-12-15T06:41:32;62.65;;;28.48;;
29452;SDS011;16424;50.956;5.320;2022-12-15T06:43:58;58.90;;;29.02;;
29452;SDS011;16424;50.956;5.320;2022-12-15T06:46:25;72.70;;;30.33;;
29452;SDS011;16424;50.956;5.320;2022-12-15T06:48:52;62.60;;;29.30;;
29452;SDS011;16424;50.956;5.320;2022-12-15T06:51:17;79.28;;;28.95;;
29452;SDS011;16424;50.956;5.320;2022-12-15T06:53:43;72.25;;;28.17;;
29452;SDS011;16424;50.956;5.320;2022-12-15T06:56:17;72.70;;;28.85;;
29452;SDS011;16424;50.956;5.320;2022-12-15T06:58:51;67.50;;;31.27;;
29452;SDS011;16424;50.956;5.320;2022-12-15T07:01:18;64.85;;;29.38;;
29452;SDS011;16424;50.956;5.320;2022-12-15T07:03:46;70.03;;;30.52;;
29452;SDS011;16424;50.956;5.320;2022-12-15T07:06:13;70.80;;;31.45;;
29452;SDS011;16424;50.956;5.320;2022-12-15T07:08:40;63.75;;;30.55;;
29452;SDS011;16424;50.956;5.320;2022-12-15T07:11:07;73.60;;;32.28;;
29452;SDS011;16424;50.956;5.320;2022-12-15T07:13:35;70.40;;;31.83;;
29452;SDS011;16424;50.956;5.320;2022-12-15T07:16:00;66.90;;;32.35;;
29452;SDS011;16424;50.956;5.320;2022-12-15T07:18:28;72.38;;;31.15;;
29452;SDS011;16424;50.956;5.320;2022-12-15T07:20:54;81.68;;;30.60;;
29452;SDS011;16424;50.956;5.320;2022-12-15T07:23:21;79.57;;;32.65;;
29452;SDS011;16424;50.956;5.320;2022-12-15T07:25:46;67.40;;;30.40;;
29452;SDS011;16424;50.956;5.320;2022-12-15T07:28:12;78.15;;;31.15;;
29452;SDS011;16424;50.956;5.320;2022-12-15T07:30:38;79.57;;;33.85;;
29452;SDS011;16424;50.956;5.320;2022-12-15T07:33:04;74.20;;;32.17;;
29452;SDS011;16424;50.956;5.320;2022-12-15T07:35:30;63.47;;;29.58;;
29452;SDS011;16424;50.956;5.320;2022-12-15T07:37:56;71.13;;;29.98;;
29452;SDS011;16424;50.956;5.320;2022-12-15T07:40:22;76.10;;;31.55;;
29452;SDS011;16424;50.956;5.320;2022-12-15T07:42:47;77.03;;;32.38;;
29452;SDS011;16424;50.956;5.320;2022-12-15T07:45:13;75.20;;;31.10;;
29452;SDS011;16424;50.956;5.320;2022-12-15T07:47:39;79.53;;;32.15;;
29452;SDS011;16424;50.956;5.320;2022-12-15T07:50:05;70.63;;;32.35;;
29452;SDS011;16424;50.956;5.320;2022-12-15T07:52:32;83.82;;;35.15;;
29452;SDS011;16424;50.956;5.320;2022-12-15T07:54:58;74.85;;;31.08;;
29452;SDS011;16424;50.956;5.320;2022-12-15T07:57:24;87.45;;;31.48;;
29452;SDS011;16424;50.956;5.320;2022-12-15T07:59:49;87.82;;;31.23;;
29452;SDS011;16424;50.956;5.320;2022-12-15T08:02:15;83.82;;;32.65;;
29452;SDS011;16424;50.956;5.320;2022-12-15T08:04:41;76.78;;;32.65;;
29452;SDS011;16424;50.956;5.320;2022-12-15T08:07:07;71.88;;;32.38;;
29452;SDS011;16424;50.956;5.320;2022-12-15T08:09:34;76.30;;;30.40;;
29452;SDS011;16424;50.956;5.320;2022-12-15T08:12:00;79.72;;;33.42;;
29452;SDS011;16424;50.956;5.320;2022-12-15T08:14:26;71.50;;;34.33;;
29452;SDS011;16424;50.956;5.320;2022-12-15T08:16:53;75.85;;;32.38;;
29452;SDS011;16424;50.956;5.320;2022-12-15T08:19:19;81.28;;;33.03;;
29452;SDS011;16424;50.956;5.320;2022-12-15T08:21:45;75.80;;;31.55;;
29452;SDS011;16424;50.956;5.320;2022-12-15T08:24:11;73.53;;;31.58;;
29452;SDS011;16424;50.956;5.320;2022-12-15T08:26:38;78.20;;;30.95;;
29452;SDS011;16424;50.956;5.320;2022-12-15T08:29:07;72.80;;;31.55;;
29452;SDS011;16424;50.956;5.320;2022-12-15T08:31:34;69.30;;;29.38;;
29452;SDS011;16424;50.956;5.320;2022-12-15T08:34:00;67.88;;;30.77;;
29452;SDS011;16424;50.956;5.320;2022-12-15T08:36:27;69.57;;;31.55;;
29452;SDS011;16424;50.956;5.320;2022-12-15T08:38:54;70.55;;;30.45;;
29452;SDS011;16424;50.956;5.320;2022-12-15T08:41:25;64.40;;;30.23;;
29452;SDS011;16424;50.956;5.320;2022-12-15T08:43:53;65.45;;;28.55;;
29452;SDS011;16424;50.956;5.320;2022-12-15T08:46:22;63.15;;;29.23;;
29452;SDS011;16424;50.956;5.320;2022-12-15T08:48:52;64.65;;;30.27;;
29452;SDS011;16424;50.956;5.320;2022-12-15T08:51:19;57.88;;;28.88;;
29452;SDS011;16424;50.956;5.320;2022-12-15T08:53:46;73.05;;;29.80;;
29452;SDS011;16424;50.956;5.320;2022-12-15T08:56:13;64.00;;;28.63;;
29452;SDS011;16424;50.956;5.320;2022-12-15T08:58:41;72.80;;;29.25;;
29452;SDS011;16424;50.956;5.320;2022-12-15T09:01:09;74.40;;;30.40;;
29452;SDS011;16424;50.956;5.320;2022-12-15T09:03:37;76.13;;;29.17;;
29452;SDS011;16424;50.956;5.320;2022-12-15T09:06:03;67.00;;;30.23;;
29452;SDS011;16424;50.956;5.320;2022-12-15T09:08:30;66.05;;;29.67;;
29452;SDS011;16424;50.956;5.320;2022-12-15T09:10:57;68.63;;;32.42;;
29452;SDS011;16424;50.956;5.320;2022-12-15T09:13:23;73.38;;;32.45;;
29452;SDS011;16424;50.956;5.320;2022-12-15T09:15:59;72.60;;;31.98;;
29452;SDS011;16424;50.956;5.320;2022-12-15T09:18:26;72.20;;;29.40;;
29452;SDS011;16424;50.956;5.320;2022-12-15T09:20:52;84.82;;;34.05;;
29452;SDS011;16424;50.956;5.320;2022-12-15T09:23:18;64.47;;;30.10;;
29452;SDS011;16424;50.956;5.320;2022-12-15T09:25:44;78.03;;;32.58;;
29452;SDS011;16424;50.956;5.320;2022-12-15T09:28:10;84.25;;;35.40;;
29452;SDS011;16424;50.956;5.320;2022-12-15T09:30:37;74.28;;;33.03;;
29452;SDS011;16424;50.956;5.320;2022-12-15T09:33:02;71.20;;;33.20;;
29452;SDS011;16424;50.956;5.320;2022-12-15T09:35:28;81.18;;;34.88;;
29452;SDS011;16424;50.956;5.320;2022-12-15T09:37:55;79.47;;;37.03;;
29452;SDS011;16424;50.956;5.320;2022-12-15T09:40:21;80.80;;;36.42;;
29452;SDS011;16424;50.956;5.320;2022-12-15T09:42:51;75.90;;;36.55;;
29452;SDS011;16424;50.956;5.320;2022-12-15T09:45:20;78.80;;;36.72;;
29452;SDS011;16424;50.956;5.320;2022-12-15T09:47:54;87.65;;;37.92;;
29452;SDS011;16424;50.956;5.320;2022-12-15T09:50:26;75.90;;;36.30;;
29452;SDS011;16424;50.956;5.320;2022-12-15T09:52:59;90.60;;;38.15;;
29452;SDS011;16424;50.956;5.320;2022-12-15T09:55:26;87.18;;;38.17;;
29452;SDS011;16424;50.956;5.320;2022-12-15T09:58:18;86.68;;;40.60;;
29452;SDS011;16424;50.956;5.320;2022-12-15T10:03:45;80.35;;;38.28;;
29452;SDS011;16424;50.956;5.320;2022-12-15T10:06:37;77.53;;;37.42;;
29452;SDS011;16424;50.956;5.320;2022-12-15T10:09:26;84.80;;;38.35;;
29452;SDS011;16424;50.956;5.320;2022-12-15T10:14:27;71.45;;;35.63;;
29452;SDS011;16424;50.956;5.320;2022-12-15T10:21:59;82.25;;;38.35;;
29452;SDS011;16424;50.956;5.320;2022-12-15T10:24:25;65.88;;;34.55;;
29452;SDS011;16424;50.956;5.320;2022-12-15T10:29:50;63.33;;;31.48;;
29452;SDS011;16424;50.956;5.320;2022-12-15T10:32:29;51.60;;;25.60;;
29452;SDS011;16424;50.956;5.320;2022-12-15T10:35:12;66.68;;;32.60;;
29452;SDS011;16424;50.956;5.320;2022-12-15T10:37:40;64.57;;;31.80;;
29452;SDS011;16424;50.956;5.320;2022-12-15T10:40:06;63.90;;;31.90;;
29452;SDS011;16424;50.956;5.320;2022-12-15T10:42:32;69.75;;;31.27;;
29452;SDS011;16424;50.956;5.320;2022-12-15T10:45:30;60.83;;;30.30;;
29452;SDS011;16424;50.956;5.320;2022-12-15T10:47:59;65.07;;;32.05;;
29452;SDS011;16424;50.956;5.320;2022-12-15T10:50:31;59.90;;;31.17;;
29452;SDS011;16424;50.956;5.320;2022-12-15T10:52:59;66.40;;;31.92;;
29452;SDS011;16424;50.956;5.320;2022-12-15T10:55:40;78.90;;;34.33;;
29452;SDS011;16424;50.956;5.320;2022-12-15T10:58:16;68.40;;;33.72;;
29452;SDS011;16424;50.956;5.320;2022-12-15T11:00:44;68.85;;;32.72;;
29452;SDS011;16424;50.956;5.320;2022-12-15T11:03:19;59.40;;;31.25;;
29452;SDS011;16424;50.956;5.320;2022-12-15T11:05:51;57.88;;;30.17;;
29452;SDS011;16424;50.956;5.320;2022-12-15T11:08:18;63.17;;;31.13;;
29452;SDS011;16424;50.956;5.320;2022-12-15T11:13:33;57.58;;;30.17;;
29452;SDS011;16424;50.956;5.320;2022-12-15T11:16:01;59.88;;;30.95;;
29452;SDS011;16424;50.956;5.320;2022-12-15T11:18:49;73.20;;;33.33;;
29452;SDS011;16424;50.956;5.320;2022-12-15T11:21:34;65.38;;;31.98;;
29452;SDS011;16424;50.956;5.320;2022-12-15T11:31:52;65.25;;;31.98;;
29452;SDS011;16424;50.956;5.320;2022-12-15T11:34:19;63.75;;;32.97;;
29452;SDS011;16424;50.956;5.320;2022-12-15T11:36:56;61.83;;;32.97;;
29452;SDS011;16424;50.956;5.320;2022-12-15T11:39:46;56.92;;;29.77;;
29452;SDS011;16424;50.956;5.320;2022-12-15T11:50:40;57.97;;;28.48;;
29452;SDS011;16424;50.956;5.320;2022-12-15T12:18:56;60.88;;;29.58;;
29452;SDS011;16424;50.956;5.320;2022-12-15T12:21:33;61.33;;;29.15;;
29452;SDS011;16424;50.956;5.320;2022-12-15T12:26:39;64.85;;;28.55;;
29452;SDS011;16424;50.956;5.320;2022-12-15T12:37:16;51.88;;;25.58;;
29452;SDS011;16424;50.956;5.320;2022-12-15T12:39:47;49.38;;;26.23;;
29452;SDS011;16424;50.956;5.320;2022-12-15T12:42:16;48.08;;;26.45;;
29452;SDS011;16424;50.956;5.320;2022-12-15T12:44:45;53.78;;;27.25;;
29452;SDS011;16424;50.956;5.320;2022-12-15T12:47:19;55.97;;;26.63;;
29452;SDS011;16424;50.956;5.320;2022-12-15T12:49:53;52.25;;;26.33;;
29452;SDS011;16424;50.956;5.320;2022-12-15T12:52:25;48.78;;;24.65;;
29452;SDS011;16424;50.956;5.320;2022-12-15T12:54:55;54.10;;;25.05;;
29452;SDS011;16424;50.956;5.320;2022-12-15T12:57:38;47.88;;;24.10;;
29452;SDS011;16424;50.956;5.320;2022-12-15T13:00:12;44.28;;;23.13;;
29452;SDS011;16424;50.956;5.320;2022-12-15T13:10:29;47.65;;;25.90;;
29452;SDS011;16424;50.956;5.320;2022-12-15T13:12:56;48.65;;;24.33;;
29452;SDS011;16424;50.956;5.320;2022-12-15T13:20:44;41.45;;;21.45;;
29452;SDS011;16424;50.956;5.320;2022-12-15T13:41:41;40.00;;;21.42;;
29452;SDS011;16424;50.956;5.320;2022-12-15T13:46:50;37.83;;;21.27;;
29452;SDS011;16424;50.956;5.320;2022-12-15T13:52:10;50.42;;;22.58;;
29452;SDS011;16424;50.956;5.320;2022-12-15T13:54:41;53.33;;;25.15;;
29452;SDS011;16424;50.956;5.320;2022-12-15T13:57:16;41.70;;;24.08;;
29452;SDS011;16424;50.956;5.320;2022-12-15T14:10:22;51.70;;;26.00;;
29452;SDS011;16424;50.956;5.320;2022-12-15T14:12:51;45.17;;;24.70;;
29452;SDS011;16424;50.956;5.320;2022-12-15T14:15:27;47.30;;;25.05;;
29452;SDS011;16424;50.956;5.320;2022-12-15T14:17:55;51.38;;;23.92;;
29452;SDS011;16424;50.956;5.320;2022-12-15T14:20:27;55.88;;;27.60;;
29452;SDS011;16424;50.956;5.320;2022-12-15T14:22:55;58.33;;;29.27;;
29452;SDS011;16424;50.956;5.320;2022-12-15T14:25:28;45.53;;;25.55;;
29452;SDS011;16424;50.956;5.320;2022-12-15T14:27:54;44.47;;;23.38;;
29452;SDS011;16424;50.956;5.320;2022-12-15T14:30:22;56.17;;;23.98;;
29452;SDS011;16424;50.956;5.320;2022-12-15T14:37:56;44.80;;;24.55;;
29452;SDS011;16424;50.956;5.320;2022-12-15T14:40:25;60.88;;;27.20;;
29452;SDS011;16424;50.956;5.320;2022-12-15T14:42:52;48.88;;;25.05;;
29452;SDS011;16424;50.956;5.320;2022-12-15T14:45:19;54.60;;;25.58;;
29452;SDS011;16424;50.956;5.320;2022-12-15T14:47:54;46.35;;;23.55;;
29452;SDS011;16424;50.956;5.320;2022-12-15T14:50:23;55.38;;;25.67;;
29452;SDS011;16424;50.956;5.320;2022-12-15T14:52:54;51.95;;;26.38;;
29452;SDS011;16424;50.956;5.320;2022-12-15T14:55:37;49.58;;;25.27;;
29452;SDS011;16424;50.956;5.320;2022-12-15T15:01:25;51.63;;;26.30;;
29452;SDS011;16424;50.956;5.320;2022-12-15T15:04:03;48.65;;;24.98;;
29452;SDS011;16424;50.956;5.320;2022-12-15T15:07:00;54.25;;;26.00;;
29452;SDS011;16424;50.956;5.320;2022-12-15T15:12:04;56.53;;;27.27;;
29452;SDS011;16424;50.956;5.320;2022-12-15T15:14:45;57.08;;;29.27;;
29452;SDS011;16424;50.956;5.320;2022-12-15T15:17:32;53.53;;;27.60;;
29452;SDS011;16424;50.956;5.320;2022-12-15T15:20:02;57.80;;;26.75;;
29452;SDS011;16424;50.956;5.320;2022-12-15T15:22:42;63.90;;;30.33;;
29452;SDS011;16424;50.956;5.320;2022-12-15T15:30:56;70.85;;;34.30;;
29452;SDS011;16424;50.956;5.320;2022-12-15T15:33:24;90.80;;;37.95;;
29452;SDS011;16424;50.956;5.320;2022-12-15T15:35:51;79.85;;;36.75;;
29452;SDS011;16424;50.956;5.320;2022-12-15T15:38:37;63.78;;;33.20;;
29452;SDS011;16424;50.956;5.320;2022-12-15T15:43:40;54.92;;;27.85;;
29452;SDS011;16424;50.956;5.320;2022-12-15T15:46:06;79.78;;;28.65;;
29452;SDS011;16424;50.956;5.320;2022-12-15T15:48:36;54.15;;;27.55;;
29452;SDS011;16424;50.956;5.320;2022-12-15T15:51:05;57.78;;;29.83;;
29452;SDS011;16424;50.956;5.320;2022-12-15T15:53:31;54.40;;;27.90;;
29452;SDS011;16424;50.956;5.320;2022-12-15T15:55:58;54.72;;;27.40;;
29452;SDS011;16424;50.956;5.320;2022-12-15T15:58:26;58.78;;;28.88;;
29452;SDS011;16424;50.956;5.320;2022-12-15T16:00:51;53.53;;;27.88;;
29452;SDS011;16424;50.956;5.320;2022-12-15T16:03:17;68.95;;;28.02;;
29452;SDS011;16424;50.956;5.320;2022-12-15T16:05:43;51.10;;;27.20;;
29452;SDS011;16424;50.956;5.320;2022-12-15T16:08:12;53.00;;;27.55;;
29452;SDS011;16424;50.956;5.320;2022-12-15T16:10:44;58.92;;;26.75;;
29452;SDS011;16424;50.956;5.320;2022-12-15T16:13:12;55.92;;;27.75;;
29452;SDS011;16424;50.956;5.320;2022-12-15T16:15:40;60.72;;;27.92;;
29452;SDS011;16424;50.956;5.320;2022-12-15T16:18:06;59.58;;;28.15;;
29452;SDS011;16424;50.956;5.320;2022-12-15T16:20:32;62.13;;;29.98;;
29452;SDS011;16424;50.956;5.320;2022-12-15T16:22:59;59.80;;;28.42;;
29452;SDS011;16424;50.956;5.320;2022-12-15T16:28:28;58.13;;;29.08;;
29452;SDS011;16424;50.956;5.320;2022-12-15T16:30:55;58.22;;;28.98;;
29452;SDS011;16424;50.956;5.320;2022-12-15T16:33:25;55.85;;;29.20;;
29452;SDS011;16424;50.956;5.320;2022-12-15T16:35:51;63.97;;;30.67;;
29452;SDS011;16424;50.956;5.320;2022-12-15T16:38:22;76.38;;;31.10;;
29452;SDS011;16424;50.956;5.320;2022-12-15T16:40:53;95.75;;;37.08;;
29452;SDS011;16424;50.956;5.320;2022-12-15T16:43:20;97.43;;;37.08;;
29452;SDS011;16424;50.956;5.320;2022-12-15T16:45:49;71.30;;;31.58;;
29452;SDS011;16424;50.956;5.320;2022-12-15T16:48:18;73.88;;;32.70;;
29452;SDS011;16424;50.956;5.320;2022-12-15T16:50:51;78.13;;;33.75;;
29452;SDS011;16424;50.956;5.320;2022-12-15T16:53:38;77.40;;;31.92;;
29452;SDS011;16424;50.956;5.320;2022-12-15T16:56:06;78.97;;;33.88;;
29452;SDS011;16424;50.956;5.320;2022-12-15T16:58:36;72.55;;;32.88;;
29452;SDS011;16424;50.956;5.320;2022-12-15T17:01:01;81.57;;;32.55;;
29452;SDS011;16424;50.956;5.320;2022-12-15T17:03:28;67.68;;;29.83;;
29452;SDS011;16424;50.956;5.320;2022-12-15T17:05:57;81.07;;;33.45;;
29452;SDS011;16424;50.956;5.320;2022-12-15T17:11:01;77.63;;;31.88;;
29452;SDS011;16424;50.956;5.320;2022-12-15T17:13:35;80.82;;;33.40;;
29452;SDS011;16424;50.956;5.320;2022-12-15T17:16:04;72.68;;;34.13;;
29452;SDS011;16424;50.956;5.320;2022-12-15T17:18:30;79.50;;;34.30;;
29452;SDS011;16424;50.956;5.320;2022-12-15T17:21:06;71.05;;;33.50;;
29452;SDS011;16424;50.956;5.320;2022-12-15T17:23:36;84.35;;;34.30;;
29452;SDS011;16424;50.956;5.320;2022-12-15T17:26:03;71.47;;;32.35;;
29452;SDS011;16424;50.956;5.320;2022-12-15T17:28:31;93.63;;;39.22;;
29452;SDS011;16424;50.956;5.320;2022-12-15T17:31:00;72.53;;;33.28;;
29452;SDS011;16424;50.956;5.320;2022-12-15T17:33:27;72.85;;;33.20;;
29452;SDS011;16424;50.956;5.320;2022-12-15T17:35:55;78.15;;;35.08;;